sensor_id;sensor_type;location;lat;lon;timestamp;P1;durP1;ratioP1;P2;durP2;ratioP2
71038;SDS011;58692;43.212;27.908;2023-05-13T00:02:14;9.30;;;4.63;;
71038;SDS011;58692;43.212;27.908;2023-05-13T00:04:40;9.70;;;4.63;;
71038;SDS011;58692;43.212;27.908;2023-05-13T00:07:05;9.63;;;4.50;;
71038;SDS011;58692;43.212;27.908;2023-05-13T00:09:31;9.63;;;4.73;;
71038;SDS011;58692;43.212;27.908;2023-05-13T00:11:57;11.52;;;5.53;;
71038;SDS011;58692;43.212;27.908;2023-05-13T00:14:22;11.47;;;5.07;;
71038;SDS011;58692;43.212;27.908;2023-05-13T00:16:48;10.97;;;4.97;;
71038;SDS011;58692;43.212;27.908;2023-05-13T00:19:13;9.77;;;4.80;;
71038;SDS011;58692;43.212;27.908;2023-05-13T00:21:39;11.17;;;5.03;;
71038;SDS011;58692;43.212;27.908;2023-05-13T00:24:05;9.57;;;4.70;;
71038;SDS011;58692;43.212;27.908;2023-05-13T00:26:31;9.45;;;4.88;;
71038;SDS011;58692;43.212;27.908;2023-05-13T00:28:56;8.60;;;4.90;;
71038;SDS011;58692;43.212;27.908;2023-05-13T00:31:22;9.50;;;4.80;;
71038;SDS011;58692;43.212;27.908;2023-05-13T00:33:48;9.67;;;5.53;;
71038;SDS011;58692;43.212;27.908;2023-05-13T00:36:13;10.63;;;5.83;;
71038;SDS011;58692;43.212;27.908;2023-05-13T00:38:39;11.70;;;5.15;;
71038;SDS011;58692;43.212;27.908;2023-05-13T00:41:04;13.33;;;5.17;;
71038;SDS011;58692;43.212;27.908;2023-05-13T00:43:30;11.45;;;5.65;;
71038;SDS011;58692;43.212;27.908;2023-05-13T00:45:56;11.23;;;5.03;;
71038;SDS011;58692;43.212;27.908;2023-05-13T00:48:23;12.43;;;5.75;;
71038;SDS011;58692;43.212;27.908;2023-05-13T00:50:49;13.83;;;6.17;;
71038;SDS011;58692;43.212;27.908;2023-05-13T00:53:15;10.23;;;5.17;;
71038;SDS011;58692;43.212;27.908;2023-05-13T00:55:41;13.00;;;6.00;;
71038;SDS011;58692;43.212;27.908;2023-05-13T00:58:08;13.13;;;5.50;;
71038;SDS011;58692;43.212;27.908;2023-05-13T01:00:36;12.27;;;5.80;;
71038;SDS011;58692;43.212;27.908;2023-05-13T01:03:20;11.27;;;5.35;;
71038;SDS011;58692;43.212;27.908;2023-05-13T01:08:51;12.25;;;5.65;;
71038;SDS011;58692;43.212;27.908;2023-05-13T01:11:28;12.13;;;5.35;;
71038;SDS011;58692;43.212;27.908;2023-05-13T01:14:01;12.40;;;5.53;;
71038;SDS011;58692;43.212;27.908;2023-05-13T01:16:33;14.38;;;5.72;;
71038;SDS011;58692;43.212;27.908;2023-05-13T01:19:24;9.90;;;5.07;;
71038;SDS011;58692;43.212;27.908;2023-05-13T01:22:06;11.90;;;5.13;;
71038;SDS011;58692;43.212;27.908;2023-05-13T01:24:31;11.93;;;5.97;;
71038;SDS011;58692;43.212;27.908;2023-05-13T01:26:58;13.60;;;5.38;;
71038;SDS011;58692;43.212;27.908;2023-05-13T01:29:24;12.77;;;6.40;;
71038;SDS011;58692;43.212;27.908;2023-05-13T01:31:50;9.88;;;5.75;;
71038;SDS011;58692;43.212;27.908;2023-05-13T01:34:17;14.00;;;7.65;;
71038;SDS011;58692;43.212;27.908;2023-05-13T01:36:44;15.95;;;8.00;;
71038;SDS011;58692;43.212;27.908;2023-05-13T01:39:10;14.47;;;8.27;;
71038;SDS011;58692;43.212;27.908;2023-05-13T01:41:37;16.08;;;8.05;;
71038;SDS011;58692;43.212;27.908;2023-05-13T01:44:02;16.98;;;7.25;;
71038;SDS011;58692;43.212;27.908;2023-05-13T01:46:28;12.10;;;6.80;;
71038;SDS011;58692;43.212;27.908;2023-05-13T01:48:54;14.23;;;6.38;;
71038;SDS011;58692;43.212;27.908;2023-05-13T01:51:19;11.57;;;6.17;;
71038;SDS011;58692;43.212;27.908;2023-05-13T01:53:45;11.43;;;6.03;;
71038;SDS011;58692;43.212;27.908;2023-05-13T01:56:10;13.17;;;6.33;;
71038;SDS011;58692;43.212;27.908;2023-05-13T01:58:36;12.47;;;5.87;;
71038;SDS011;58692;43.212;27.908;2023-05-13T02:01:01;15.67;;;6.33;;
71038;SDS011;58692;43.212;27.908;2023-05-13T02:03:27;12.02;;;6.45;;
71038;SDS011;58692;43.212;27.908;2023-05-13T02:05:53;13.98;;;5.97;;
71038;SDS011;58692;43.212;27.908;2023-05-13T02:08:19;13.00;;;6.43;;
71038;SDS011;58692;43.212;27.908;2023-05-13T02:10:53;12.98;;;6.40;;
71038;SDS011;58692;43.212;27.908;2023-05-13T02:13:20;14.95;;;6.30;;
71038;SDS011;58692;43.212;27.908;2023-05-13T02:15:46;13.00;;;6.47;;
71038;SDS011;58692;43.212;27.908;2023-05-13T02:18:11;12.63;;;6.77;;
71038;SDS011;58692;43.212;27.908;2023-05-13T02:20:37;13.00;;;6.90;;
71038;SDS011;58692;43.212;27.908;2023-05-13T02:23:02;16.63;;;7.43;;
71038;SDS011;58692;43.212;27.908;2023-05-13T02:25:28;13.57;;;7.40;;
71038;SDS011;58692;43.212;27.908;2023-05-13T02:27:53;13.15;;;7.00;;
71038;SDS011;58692;43.212;27.908;2023-05-13T02:30:19;14.53;;;7.43;;
71038;SDS011;58692;43.212;27.908;2023-05-13T02:32:44;14.45;;;6.80;;
71038;SDS011;58692;43.212;27.908;2023-05-13T02:35:10;14.10;;;7.07;;
71038;SDS011;58692;43.212;27.908;2023-05-13T02:37:35;13.50;;;8.00;;
71038;SDS011;58692;43.212;27.908;2023-05-13T02:40:01;18.25;;;8.00;;
71038;SDS011;58692;43.212;27.908;2023-05-13T02:42:27;20.10;;;9.27;;
71038;SDS011;58692;43.212;27.908;2023-05-13T02:44:52;13.90;;;7.77;;
71038;SDS011;58692;43.212;27.908;2023-05-13T02:47:18;16.80;;;7.60;;
71038;SDS011;58692;43.212;27.908;2023-05-13T02:49:43;16.17;;;7.10;;
71038;SDS011;58692;43.212;27.908;2023-05-13T02:52:09;13.35;;;7.43;;
71038;SDS011;58692;43.212;27.908;2023-05-13T02:54:34;11.90;;;6.33;;
71038;SDS011;58692;43.212;27.908;2023-05-13T02:57:00;16.00;;;6.83;;
71038;SDS011;58692;43.212;27.908;2023-05-13T02:59:25;14.82;;;6.72;;
71038;SDS011;58692;43.212;27.908;2023-05-13T03:01:51;14.53;;;6.97;;
71038;SDS011;58692;43.212;27.908;2023-05-13T03:04:16;13.70;;;8.40;;
71038;SDS011;58692;43.212;27.908;2023-05-13T03:06:42;17.45;;;9.43;;
71038;SDS011;58692;43.212;27.908;2023-05-13T03:09:07;20.83;;;11.10;;
71038;SDS011;58692;43.212;27.908;2023-05-13T03:11:33;20.57;;;11.53;;
71038;SDS011;58692;43.212;27.908;2023-05-13T03:13:58;25.08;;;12.43;;
71038;SDS011;58692;43.212;27.908;2023-05-13T03:16:24;21.60;;;12.33;;
71038;SDS011;58692;43.212;27.908;2023-05-13T03:18:50;22.77;;;12.70;;
71038;SDS011;58692;43.212;27.908;2023-05-13T03:21:16;24.37;;;13.40;;
71038;SDS011;58692;43.212;27.908;2023-05-13T03:23:41;21.63;;;12.67;;
71038;SDS011;58692;43.212;27.908;2023-05-13T03:26:07;22.58;;;12.40;;
71038;SDS011;58692;43.212;27.908;2023-05-13T03:28:32;24.10;;;12.20;;
71038;SDS011;58692;43.212;27.908;2023-05-13T03:30:58;20.87;;;11.70;;
71038;SDS011;58692;43.212;27.908;2023-05-13T03:33:23;21.90;;;12.43;;
71038;SDS011;58692;43.212;27.908;2023-05-13T03:35:49;22.13;;;10.93;;
71038;SDS011;58692;43.212;27.908;2023-05-13T03:38:15;21.92;;;11.52;;
71038;SDS011;58692;43.212;27.908;2023-05-13T03:40:40;24.93;;;12.77;;
71038;SDS011;58692;43.212;27.908;2023-05-13T03:43:06;25.75;;;13.90;;
71038;SDS011;58692;43.212;27.908;2023-05-13T03:45:31;25.27;;;13.77;;
71038;SDS011;58692;43.212;27.908;2023-05-13T03:47:57;24.97;;;13.70;;
71038;SDS011;58692;43.212;27.908;2023-05-13T03:50:22;25.43;;;14.50;;
71038;SDS011;58692;43.212;27.908;2023-05-13T03:52:48;28.08;;;15.00;;
71038;SDS011;58692;43.212;27.908;2023-05-13T03:55:13;27.63;;;15.17;;
71038;SDS011;58692;43.212;27.908;2023-05-13T03:57:40;27.03;;;13.93;;
71038;SDS011;58692;43.212;27.908;2023-05-13T04:00:06;27.00;;;14.23;;
71038;SDS011;58692;43.212;27.908;2023-05-13T04:02:33;24.05;;;14.55;;
71038;SDS011;58692;43.212;27.908;2023-05-13T04:04:58;24.33;;;13.47;;
71038;SDS011;58692;43.212;27.908;2023-05-13T04:07:24;26.10;;;14.37;;
71038;SDS011;58692;43.212;27.908;2023-05-13T04:09:49;24.60;;;15.37;;
71038;SDS011;58692;43.212;27.908;2023-05-13T04:12:15;25.77;;;15.47;;
71038;SDS011;58692;43.212;27.908;2023-05-13T04:14:42;26.80;;;14.98;;
71038;SDS011;58692;43.212;27.908;2023-05-13T04:17:07;24.20;;;15.65;;
71038;SDS011;58692;43.212;27.908;2023-05-13T04:19:33;23.27;;;15.43;;
71038;SDS011;58692;43.212;27.908;2023-05-13T04:21:58;29.73;;;16.57;;
71038;SDS011;58692;43.212;27.908;2023-05-13T04:24:24;25.93;;;16.97;;
71038;SDS011;58692;43.212;27.908;2023-05-13T04:26:49;32.53;;;18.08;;
71038;SDS011;58692;43.212;27.908;2023-05-13T04:29:15;29.70;;;17.83;;
71038;SDS011;58692;43.212;27.908;2023-05-13T04:31:42;24.10;;;14.50;;
71038;SDS011;58692;43.212;27.908;2023-05-13T04:34:08;24.83;;;14.38;;
71038;SDS011;58692;43.212;27.908;2023-05-13T04:36:33;26.17;;;14.10;;
71038;SDS011;58692;43.212;27.908;2023-05-13T04:38:59;23.83;;;14.40;;
71038;SDS011;58692;43.212;27.908;2023-05-13T04:41:24;24.00;;;13.77;;
71038;SDS011;58692;43.212;27.908;2023-05-13T04:43:50;25.13;;;14.83;;
71038;SDS011;58692;43.212;27.908;2023-05-13T04:46:15;25.87;;;13.80;;
71038;SDS011;58692;43.212;27.908;2023-05-13T04:48:41;22.70;;;13.90;;
71038;SDS011;58692;43.212;27.908;2023-05-13T04:51:07;21.60;;;12.52;;
71038;SDS011;58692;43.212;27.908;2023-05-13T04:53:32;24.43;;;12.40;;
71038;SDS011;58692;43.212;27.908;2023-05-13T04:55:58;20.57;;;11.13;;
71038;SDS011;58692;43.212;27.908;2023-05-13T04:58:25;18.08;;;11.05;;
71038;SDS011;58692;43.212;27.908;2023-05-13T05:00:52;20.40;;;12.07;;
71038;SDS011;58692;43.212;27.908;2023-05-13T05:03:17;21.87;;;11.80;;
71038;SDS011;58692;43.212;27.908;2023-05-13T05:05:43;20.75;;;11.70;;
71038;SDS011;58692;43.212;27.908;2023-05-13T05:08:08;19.57;;;11.70;;
71038;SDS011;58692;43.212;27.908;2023-05-13T05:10:34;20.17;;;11.40;;
71038;SDS011;58692;43.212;27.908;2023-05-13T05:13:01;19.98;;;10.77;;
71038;SDS011;58692;43.212;27.908;2023-05-13T05:15:26;15.73;;;9.67;;
71038;SDS011;58692;43.212;27.908;2023-05-13T05:17:53;12.80;;;8.77;;
71038;SDS011;58692;43.212;27.908;2023-05-13T05:20:19;15.35;;;9.20;;
71038;SDS011;58692;43.212;27.908;2023-05-13T05:22:45;18.80;;;9.67;;
71038;SDS011;58692;43.212;27.908;2023-05-13T05:25:10;15.38;;;9.27;;
71038;SDS011;58692;43.212;27.908;2023-05-13T05:27:36;17.37;;;10.07;;
71038;SDS011;58692;43.212;27.908;2023-05-13T05:30:02;16.27;;;10.20;;
71038;SDS011;58692;43.212;27.908;2023-05-13T05:32:27;20.80;;;13.17;;
71038;SDS011;58692;43.212;27.908;2023-05-13T05:34:53;26.15;;;16.52;;
71038;SDS011;58692;43.212;27.908;2023-05-13T05:37:18;20.30;;;12.83;;
71038;SDS011;58692;43.212;27.908;2023-05-13T05:39:44;19.37;;;11.20;;
71038;SDS011;58692;43.212;27.908;2023-05-13T05:42:10;18.30;;;10.38;;
71038;SDS011;58692;43.212;27.908;2023-05-13T05:44:35;20.10;;;11.13;;
71038;SDS011;58692;43.212;27.908;2023-05-13T05:47:01;21.60;;;14.15;;
71038;SDS011;58692;43.212;27.908;2023-05-13T05:49:27;19.90;;;14.67;;
71038;SDS011;58692;43.212;27.908;2023-05-13T05:51:52;20.80;;;14.45;;
71038;SDS011;58692;43.212;27.908;2023-05-13T05:54:18;18.30;;;12.17;;
71038;SDS011;58692;43.212;27.908;2023-05-13T05:56:43;18.33;;;10.30;;
71038;SDS011;58692;43.212;27.908;2023-05-13T05:59:09;17.20;;;9.90;;
71038;SDS011;58692;43.212;27.908;2023-05-13T06:01:34;15.87;;;9.17;;
71038;SDS011;58692;43.212;27.908;2023-05-13T06:04:01;20.15;;;8.90;;
71038;SDS011;58692;43.212;27.908;2023-05-13T06:06:27;15.85;;;9.35;;
71038;SDS011;58692;43.212;27.908;2023-05-13T06:08:53;15.37;;;9.27;;
71038;SDS011;58692;43.212;27.908;2023-05-13T06:11:18;15.30;;;8.77;;
71038;SDS011;58692;43.212;27.908;2023-05-13T06:13:44;16.45;;;9.18;;
71038;SDS011;58692;43.212;27.908;2023-05-13T06:16:09;17.23;;;8.33;;
71038;SDS011;58692;43.212;27.908;2023-05-13T06:18:35;14.43;;;7.80;;
71038;SDS011;58692;43.212;27.908;2023-05-13T06:21:00;19.63;;;7.77;;
71038;SDS011;58692;43.212;27.908;2023-05-13T06:23:25;14.50;;;7.60;;
71038;SDS011;58692;43.212;27.908;2023-05-13T06:25:51;13.60;;;7.53;;
71038;SDS011;58692;43.212;27.908;2023-05-13T06:28:16;12.82;;;6.63;;
71038;SDS011;58692;43.212;27.908;2023-05-13T06:30:42;11.83;;;7.07;;
71038;SDS011;58692;43.212;27.908;2023-05-13T06:33:08;14.27;;;6.82;;
71038;SDS011;58692;43.212;27.908;2023-05-13T06:35:34;11.73;;;6.27;;
71038;SDS011;58692;43.212;27.908;2023-05-13T06:38:01;12.00;;;6.80;;
71038;SDS011;58692;43.212;27.908;2023-05-13T06:40:26;13.67;;;7.00;;
71038;SDS011;58692;43.212;27.908;2023-05-13T06:42:52;13.95;;;7.00;;
71038;SDS011;58692;43.212;27.908;2023-05-13T06:45:17;12.73;;;6.50;;
71038;SDS011;58692;43.212;27.908;2023-05-13T06:47:47;12.50;;;5.97;;
71038;SDS011;58692;43.212;27.908;2023-05-13T06:50:17;12.30;;;6.05;;
71038;SDS011;58692;43.212;27.908;2023-05-13T06:52:43;12.43;;;6.50;;
71038;SDS011;58692;43.212;27.908;2023-05-13T06:55:08;13.02;;;6.45;;
71038;SDS011;58692;43.212;27.908;2023-05-13T06:57:34;13.23;;;7.00;;
71038;SDS011;58692;43.212;27.908;2023-05-13T07:00:00;11.88;;;5.90;;
71038;SDS011;58692;43.212;27.908;2023-05-13T07:02:26;9.27;;;5.72;;
71038;SDS011;58692;43.212;27.908;2023-05-13T07:04:51;12.13;;;5.47;;
71038;SDS011;58692;43.212;27.908;2023-05-13T07:07:17;11.30;;;5.57;;
71038;SDS011;58692;43.212;27.908;2023-05-13T07:09:43;13.83;;;6.23;;
71038;SDS011;58692;43.212;27.908;2023-05-13T07:12:08;10.17;;;6.10;;
71038;SDS011;58692;43.212;27.908;2023-05-13T07:14:35;11.13;;;4.97;;
71038;SDS011;58692;43.212;27.908;2023-05-13T07:17:02;9.30;;;4.68;;
71038;SDS011;58692;43.212;27.908;2023-05-13T07:19:28;7.97;;;3.63;;
71038;SDS011;58692;43.212;27.908;2023-05-13T07:21:54;7.50;;;3.60;;
71038;SDS011;58692;43.212;27.908;2023-05-13T07:24:19;8.25;;;3.97;;
71038;SDS011;58692;43.212;27.908;2023-05-13T07:26:45;8.33;;;3.47;;
71038;SDS011;58692;43.212;27.908;2023-05-13T07:29:10;8.65;;;3.60;;
71038;SDS011;58692;43.212;27.908;2023-05-13T07:31:36;14.23;;;3.87;;
71038;SDS011;58692;43.212;27.908;2023-05-13T07:34:02;10.67;;;4.17;;
71038;SDS011;58692;43.212;27.908;2023-05-13T07:36:27;8.95;;;3.70;;
71038;SDS011;58692;43.212;27.908;2023-05-13T07:38:53;6.37;;;3.40;;
71038;SDS011;58692;43.212;27.908;2023-05-13T07:41:18;8.57;;;3.95;;
71038;SDS011;58692;43.212;27.908;2023-05-13T07:43:45;9.27;;;3.63;;
71038;SDS011;58692;43.212;27.908;2023-05-13T07:46:10;7.15;;;3.25;;
71038;SDS011;58692;43.212;27.908;2023-05-13T07:48:36;8.73;;;3.30;;
71038;SDS011;58692;43.212;27.908;2023-05-13T07:51:01;7.63;;;3.30;;
71038;SDS011;58692;43.212;27.908;2023-05-13T07:53:27;6.20;;;2.90;;
71038;SDS011;58692;43.212;27.908;2023-05-13T07:55:52;8.20;;;3.20;;
71038;SDS011;58692;43.212;27.908;2023-05-13T07:58:18;6.05;;;2.60;;
71038;SDS011;58692;43.212;27.908;2023-05-13T08:00:44;7.23;;;2.60;;
71038;SDS011;58692;43.212;27.908;2023-05-13T08:03:09;7.85;;;2.85;;
71038;SDS011;58692;43.212;27.908;2023-05-13T08:05:36;4.85;;;2.70;;
71038;SDS011;58692;43.212;27.908;2023-05-13T08:08:02;6.47;;;2.70;;
71038;SDS011;58692;43.212;27.908;2023-05-13T08:10:28;8.02;;;2.50;;
71038;SDS011;58692;43.212;27.908;2023-05-13T08:12:54;5.53;;;2.80;;
71038;SDS011;58692;43.212;27.908;2023-05-13T08:15:22;6.70;;;2.53;;
71038;SDS011;58692;43.212;27.908;2023-05-13T08:17:48;5.83;;;2.90;;
71038;SDS011;58692;43.212;27.908;2023-05-13T08:20:13;11.40;;;3.67;;
71038;SDS011;58692;43.212;27.908;2023-05-13T08:22:39;6.13;;;2.60;;
71038;SDS011;58692;43.212;27.908;2023-05-13T08:25:05;6.25;;;2.72;;
71038;SDS011;58692;43.212;27.908;2023-05-13T08:27:31;6.68;;;2.72;;
71038;SDS011;58692;43.212;27.908;2023-05-13T08:29:56;5.30;;;2.80;;
71038;SDS011;58692;43.212;27.908;2023-05-13T08:32:22;4.87;;;2.70;;
71038;SDS011;58692;43.212;27.908;2023-05-13T08:34:47;6.25;;;3.00;;
71038;SDS011;58692;43.212;27.908;2023-05-13T08:37:13;6.20;;;2.90;;
71038;SDS011;58692;43.212;27.908;2023-05-13T08:39:38;14.87;;;3.03;;
71038;SDS011;58692;43.212;27.908;2023-05-13T08:42:04;7.93;;;2.95;;
71038;SDS011;58692;43.212;27.908;2023-05-13T08:44:32;6.10;;;3.00;;
71038;SDS011;58692;43.212;27.908;2023-05-13T08:47:07;9.13;;;3.20;;
71038;SDS011;58692;43.212;27.908;2023-05-13T08:49:49;5.45;;;2.78;;
71038;SDS011;58692;43.212;27.908;2023-05-13T08:52:17;6.25;;;2.90;;
71038;SDS011;58692;43.212;27.908;2023-05-13T08:54:44;6.78;;;3.00;;
71038;SDS011;58692;43.212;27.908;2023-05-13T08:57:11;7.70;;;2.87;;
71038;SDS011;58692;43.212;27.908;2023-05-13T08:59:36;6.50;;;3.20;;
71038;SDS011;58692;43.212;27.908;2023-05-13T09:02:03;5.13;;;2.57;;
71038;SDS011;58692;43.212;27.908;2023-05-13T09:04:29;7.97;;;3.10;;
71038;SDS011;58692;43.212;27.908;2023-05-13T09:06:56;6.57;;;2.92;;
71038;SDS011;58692;43.212;27.908;2023-05-13T09:09:22;5.00;;;2.63;;
71038;SDS011;58692;43.212;27.908;2023-05-13T09:11:48;6.13;;;2.80;;
71038;SDS011;58692;43.212;27.908;2023-05-13T09:14:17;6.68;;;2.85;;
71038;SDS011;58692;43.212;27.908;2023-05-13T09:16:43;8.88;;;3.10;;
71038;SDS011;58692;43.212;27.908;2023-05-13T09:19:09;5.80;;;2.70;;
71038;SDS011;58692;43.212;27.908;2023-05-13T09:21:35;6.43;;;2.92;;
71038;SDS011;58692;43.212;27.908;2023-05-13T09:24:05;6.45;;;2.90;;
71038;SDS011;58692;43.212;27.908;2023-05-13T09:26:35;5.40;;;2.75;;
71038;SDS011;58692;43.212;27.908;2023-05-13T09:31:44;5.07;;;3.10;;
71038;SDS011;58692;43.212;27.908;2023-05-13T09:34:10;5.60;;;2.70;;
71038;SDS011;58692;43.212;27.908;2023-05-13T09:36:36;6.93;;;2.75;;
71038;SDS011;58692;43.212;27.908;2023-05-13T09:39:02;6.13;;;2.95;;
71038;SDS011;58692;43.212;27.908;2023-05-13T09:41:29;7.18;;;2.78;;
71038;SDS011;58692;43.212;27.908;2023-05-13T09:43:56;6.23;;;2.70;;
71038;SDS011;58692;43.212;27.908;2023-05-13T09:46:22;4.28;;;2.75;;
71038;SDS011;58692;43.212;27.908;2023-05-13T09:48:49;7.05;;;2.70;;
71038;SDS011;58692;43.212;27.908;2023-05-13T09:51:24;7.15;;;2.90;;
71038;SDS011;58692;43.212;27.908;2023-05-13T09:53:51;6.88;;;2.83;;
71038;SDS011;58692;43.212;27.908;2023-05-13T09:56:18;6.67;;;2.67;;
71038;SDS011;58692;43.212;27.908;2023-05-13T09:58:50;9.30;;;3.13;;
71038;SDS011;58692;43.212;27.908;2023-05-13T10:01:16;6.25;;;2.80;;
71038;SDS011;58692;43.212;27.908;2023-05-13T10:03:43;6.73;;;2.90;;
71038;SDS011;58692;43.212;27.908;2023-05-13T10:06:09;8.35;;;2.65;;
71038;SDS011;58692;43.212;27.908;2023-05-13T10:08:34;6.45;;;2.80;;
71038;SDS011;58692;43.212;27.908;2023-05-13T10:11:02;8.90;;;2.57;;
71038;SDS011;58692;43.212;27.908;2023-05-13T10:13:30;6.15;;;2.67;;
71038;SDS011;58692;43.212;27.908;2023-05-13T10:15:56;6.97;;;2.90;;
71038;SDS011;58692;43.212;27.908;2023-05-13T10:18:23;6.65;;;3.28;;
71038;SDS011;58692;43.212;27.908;2023-05-13T10:20:48;6.00;;;2.93;;
71038;SDS011;58692;43.212;27.908;2023-05-13T10:23:17;6.03;;;2.80;;
71038;SDS011;58692;43.212;27.908;2023-05-13T10:25:44;5.80;;;2.80;;
71038;SDS011;58692;43.212;27.908;2023-05-13T10:28:11;4.88;;;2.75;;
71038;SDS011;58692;43.212;27.908;2023-05-13T10:30:39;7.20;;;2.60;;
71038;SDS011;58692;43.212;27.908;2023-05-13T10:33:05;6.97;;;2.73;;
71038;SDS011;58692;43.212;27.908;2023-05-13T10:35:31;6.15;;;2.95;;
71038;SDS011;58692;43.212;27.908;2023-05-13T10:38:06;8.00;;;3.05;;
71038;SDS011;58692;43.212;27.908;2023-05-13T10:40:54;5.38;;;2.83;;
71038;SDS011;58692;43.212;27.908;2023-05-13T10:43:35;6.25;;;2.80;;
71038;SDS011;58692;43.212;27.908;2023-05-13T10:46:03;5.37;;;2.67;;
71038;SDS011;58692;43.212;27.908;2023-05-13T10:48:38;7.93;;;2.97;;
71038;SDS011;58692;43.212;27.908;2023-05-13T10:51:08;4.75;;;2.70;;
71038;SDS011;58692;43.212;27.908;2023-05-13T10:53:46;7.05;;;3.00;;
71038;SDS011;58692;43.212;27.908;2023-05-13T10:56:14;7.15;;;2.75;;
71038;SDS011;58692;43.212;27.908;2023-05-13T10:58:43;14.33;;;2.80;;
71038;SDS011;58692;43.212;27.908;2023-05-13T11:01:26;7.72;;;2.70;;
71038;SDS011;58692;43.212;27.908;2023-05-13T11:03:54;8.20;;;2.97;;
71038;SDS011;58692;43.212;27.908;2023-05-13T11:06:23;6.50;;;2.90;;
71038;SDS011;58692;43.212;27.908;2023-05-13T11:08:53;10.98;;;3.50;;
71038;SDS011;58692;43.212;27.908;2023-05-13T11:13:45;6.57;;;2.97;;
71038;SDS011;58692;43.212;27.908;2023-05-13T11:16:14;6.55;;;3.10;;
71038;SDS011;58692;43.212;27.908;2023-05-13T11:18:40;8.47;;;3.40;;
71038;SDS011;58692;43.212;27.908;2023-05-13T11:21:06;9.70;;;3.10;;
71038;SDS011;58692;43.212;27.908;2023-05-13T11:23:33;5.50;;;2.92;;
71038;SDS011;58692;43.212;27.908;2023-05-13T11:26:19;5.77;;;2.80;;
71038;SDS011;58692;43.212;27.908;2023-05-13T11:31:40;6.07;;;3.13;;
71038;SDS011;58692;43.212;27.908;2023-05-13T11:34:15;5.88;;;2.72;;
71038;SDS011;58692;43.212;27.908;2023-05-13T11:36:44;7.13;;;2.75;;
71038;SDS011;58692;43.212;27.908;2023-05-13T11:41:40;5.90;;;2.78;;
71038;SDS011;58692;43.212;27.908;2023-05-13T11:44:07;7.50;;;2.95;;
71038;SDS011;58692;43.212;27.908;2023-05-13T11:46:35;5.10;;;3.00;;
71038;SDS011;58692;43.212;27.908;2023-05-13T11:49:01;6.27;;;2.97;;
71038;SDS011;58692;43.212;27.908;2023-05-13T11:51:26;6.88;;;3.00;;
71038;SDS011;58692;43.212;27.908;2023-05-13T11:53:58;5.90;;;2.80;;
71038;SDS011;58692;43.212;27.908;2023-05-13T11:56:25;6.10;;;3.00;;
71038;SDS011;58692;43.212;27.908;2023-05-13T11:58:52;6.35;;;2.70;;
71038;SDS011;58692;43.212;27.908;2023-05-13T12:01:18;6.15;;;2.90;;
71038;SDS011;58692;43.212;27.908;2023-05-13T12:03:44;6.50;;;3.03;;
71038;SDS011;58692;43.212;27.908;2023-05-13T12:06:09;6.47;;;2.73;;
71038;SDS011;58692;43.212;27.908;2023-05-13T12:08:41;6.23;;;2.67;;
71038;SDS011;58692;43.212;27.908;2023-05-13T12:11:08;6.13;;;2.83;;
71038;SDS011;58692;43.212;27.908;2023-05-13T12:13:37;6.10;;;2.88;;
71038;SDS011;58692;43.212;27.908;2023-05-13T12:16:05;6.27;;;2.83;;
71038;SDS011;58692;43.212;27.908;2023-05-13T12:18:32;6.30;;;2.90;;
71038;SDS011;58692;43.212;27.908;2023-05-13T12:20:58;7.50;;;2.90;;
71038;SDS011;58692;43.212;27.908;2023-05-13T12:23:24;6.33;;;3.00;;
71038;SDS011;58692;43.212;27.908;2023-05-13T12:25:49;6.55;;;3.00;;
71038;SDS011;58692;43.212;27.908;2023-05-13T12:33:25;5.68;;;2.80;;
71038;SDS011;58692;43.212;27.908;2023-05-13T12:35:54;6.38;;;2.70;;
71038;SDS011;58692;43.212;27.908;2023-05-13T12:38:40;6.40;;;2.67;;
71038;SDS011;58692;43.212;27.908;2023-05-13T12:41:18;5.60;;;2.85;;
71038;SDS011;58692;43.212;27.908;2023-05-13T12:43:43;7.33;;;3.03;;
71038;SDS011;58692;43.212;27.908;2023-05-13T12:46:09;6.25;;;2.97;;
71038;SDS011;58692;43.212;27.908;2023-05-13T12:48:35;6.17;;;2.60;;
71038;SDS011;58692;43.212;27.908;2023-05-13T12:51:01;5.78;;;2.50;;
71038;SDS011;58692;43.212;27.908;2023-05-13T12:53:26;7.05;;;2.72;;
71038;SDS011;58692;43.212;27.908;2023-05-13T12:55:52;4.83;;;2.77;;
71038;SDS011;58692;43.212;27.908;2023-05-13T12:58:17;6.17;;;2.90;;
71038;SDS011;58692;43.212;27.908;2023-05-13T13:00:44;6.63;;;2.80;;
71038;SDS011;58692;43.212;27.908;2023-05-13T13:03:09;6.80;;;2.90;;
71038;SDS011;58692;43.212;27.908;2023-05-13T13:05:35;6.70;;;2.67;;
71038;SDS011;58692;43.212;27.908;2023-05-13T13:08:01;6.23;;;2.83;;
71038;SDS011;58692;43.212;27.908;2023-05-13T13:10:29;7.75;;;3.05;;
71038;SDS011;58692;43.212;27.908;2023-05-13T13:12:54;4.80;;;2.80;;
71038;SDS011;58692;43.212;27.908;2023-05-13T13:15:20;5.22;;;2.63;;
71038;SDS011;58692;43.212;27.908;2023-05-13T13:17:45;7.27;;;2.90;;
71038;SDS011;58692;43.212;27.908;2023-05-13T13:20:11;5.73;;;2.77;;
71038;SDS011;58692;43.212;27.908;2023-05-13T13:22:36;6.20;;;2.97;;
71038;SDS011;58692;43.212;27.908;2023-05-13T13:25:03;7.93;;;2.90;;
71038;SDS011;58692;43.212;27.908;2023-05-13T13:27:31;9.17;;;3.40;;
71038;SDS011;58692;43.212;27.908;2023-05-13T13:29:58;7.00;;;3.00;;
71038;SDS011;58692;43.212;27.908;2023-05-13T13:32:24;6.75;;;3.10;;
71038;SDS011;58692;43.212;27.908;2023-05-13T13:34:49;5.50;;;2.80;;
71038;SDS011;58692;43.212;27.908;2023-05-13T13:37:15;6.10;;;3.10;;
71038;SDS011;58692;43.212;27.908;2023-05-13T13:39:40;7.77;;;2.80;;
71038;SDS011;58692;43.212;27.908;2023-05-13T13:42:06;6.60;;;2.90;;
71038;SDS011;58692;43.212;27.908;2023-05-13T13:44:31;7.78;;;3.17;;
71038;SDS011;58692;43.212;27.908;2023-05-13T13:46:57;6.30;;;3.20;;
71038;SDS011;58692;43.212;27.908;2023-05-13T13:49:23;5.47;;;2.78;;
71038;SDS011;58692;43.212;27.908;2023-05-13T13:51:50;7.27;;;2.80;;
71038;SDS011;58692;43.212;27.908;2023-05-13T13:54:16;5.80;;;2.90;;
71038;SDS011;58692;43.212;27.908;2023-05-13T13:56:42;7.28;;;2.88;;
71038;SDS011;58692;43.212;27.908;2023-05-13T13:59:07;5.60;;;2.77;;
71038;SDS011;58692;43.212;27.908;2023-05-13T14:01:32;7.20;;;2.80;;
71038;SDS011;58692;43.212;27.908;2023-05-13T14:06:39;6.00;;;2.90;;
71038;SDS011;58692;43.212;27.908;2023-05-13T14:09:05;7.82;;;2.80;;
71038;SDS011;58692;43.212;27.908;2023-05-13T14:11:31;5.53;;;2.72;;
71038;SDS011;58692;43.212;27.908;2023-05-13T14:13:57;6.60;;;2.80;;
71038;SDS011;58692;43.212;27.908;2023-05-13T14:16:22;5.30;;;2.58;;
71038;SDS011;58692;43.212;27.908;2023-05-13T14:18:48;5.57;;;2.77;;
71038;SDS011;58692;43.212;27.908;2023-05-13T14:21:15;7.93;;;3.00;;
71038;SDS011;58692;43.212;27.908;2023-05-13T14:23:40;9.25;;;2.70;;
71038;SDS011;58692;43.212;27.908;2023-05-13T14:26:07;7.03;;;2.80;;
71038;SDS011;58692;43.212;27.908;2023-05-13T14:28:34;6.13;;;2.73;;
71038;SDS011;58692;43.212;27.908;2023-05-13T14:31:00;5.82;;;2.92;;
71038;SDS011;58692;43.212;27.908;2023-05-13T14:33:25;6.07;;;2.70;;
71038;SDS011;58692;43.212;27.908;2023-05-13T14:35:51;6.57;;;3.13;;
71038;SDS011;58692;43.212;27.908;2023-05-13T14:38:17;5.60;;;3.00;;
71038;SDS011;58692;43.212;27.908;2023-05-13T14:40:43;7.20;;;3.55;;
71038;SDS011;58692;43.212;27.908;2023-05-13T14:43:08;6.33;;;2.50;;
71038;SDS011;58692;43.212;27.908;2023-05-13T14:45:34;4.95;;;2.80;;